McIndoe Falls, Vermont
Current Conditions -  °F | °C
As of 6:55 AM on Friday 19 Dec 2014 (Local Time) from KCDA Reporting Station
Overcast Overcast  
Wind Chill: 15°   Ceiling: 2100
Heat Index: 25°   Visibility: 10mi
Dew Point: 19°   Wind: 9mph
Humidity: 78%   Direction: 270°W
Pressure: 29.91"   Gusts: NA
Location:  44.26°N, 72.06°W
Report Text: KCDA 191155Z AUTO 27008KT 10SM OVC021 M04/M07 A2991 RMK AO2 T10401073 11028 21040
Loading
Personal Weather Stations






























Interactive Weather Map New forecast layout! Learn more

10-Day Weather Forecast

Advertisements
Track Severe Weather on mobile